Time;durP1;ratioP1;P1;durP2;ratioP2;P2;SDS_P1;SDS_P2;PMS_P1;PMS_P2;Temp;Humidity;BMP_temperature;BMP_pressure;BME280_temperature;BME280_humidity;BME280_pressure;Samples;Min_cycle;Max_cycle;Signal;HPM_P1;HPM_P2
2023/03/28 00:01:12;;;;;;;;;3.60;3.60;;;;;-0.42;55.21;99020.47;5081449;28;8866;-77
2023/03/28 00:03:43;;;;;;;;;5.80;4.00;;;;;-0.41;54.31;99027.34;5087739;28;8852;-78
2023/03/28 00:06:15;;;;;;;;;6.80;5.20;;;;;-0.47;55.17;99016.94;5090286;28;8866;-76
2023/03/28 00:08:46;;;;;;;;;6.60;5.00;;;;;-0.40;54.29;99031.69;5085940;28;9084;-78
2023/03/28 00:11:18;;;;;;;;;5.20;4.80;;;;;-0.49;53.85;99013.47;5078507;28;8864;-76
2023/03/28 00:13:52;;;;;;;;;4.00;3.20;;;;;-0.32;54.86;99043.00;5086005;28;9652;-75
2023/03/28 00:16:21;;;;;;;;;7.60;4.40;;;;;-0.35;54.43;99036.91;5088291;28;9037;-74
2023/03/28 00:18:51;;;;;;;;;7.80;5.20;;;;;-0.23;54.35;99031.09;5080872;28;8872;-76
2023/03/28 00:21:24;;;;;;;;;4.20;4.20;;;;;-0.40;53.87;99021.38;5102892;28;8886;-78
2023/03/28 00:23:54;;;;;;;;;0.00;0.00;;;;;-0.41;52.39;99031.66;5106913;27;8896;-76
2023/03/28 00:26:25;;;;;;;;;4.20;4.20;;;;;-0.32;53.41;99024.06;5084680;28;8843;-75
2023/03/28 00:28:55;;;;;;;;;5.20;3.40;;;;;-0.24;53.34;99037.94;5075501;28;8944;-77
2023/03/28 00:31:25;;;;;;;;;2.60;2.60;;;;;-0.27;53.43;99047.38;5077494;28;8889;-76
2023/03/28 00:33:56;;;;;;;;;6.50;5.75;;;;;-0.38;53.18;99048.06;5094659;28;8865;-76
2023/03/28 00:36:28;;;;;;;;;10.20;5.80;;;;;-0.38;53.08;99047.22;5088867;28;8852;-76
2023/03/28 00:39:00;;;;;;;;;7.00;7.00;;;;;-0.37;53.45;99042.09;5065238;28;8860;-78
2023/03/28 00:41:31;;;;;;;;;4.40;4.40;;;;;-0.47;51.96;99080.63;5039488;28;8864;-78
2023/03/28 00:44:01;;;;;;;;;6.80;5.20;;;;;-0.36;52.07;99045.53;5047407;28;8986;-78
2023/03/28 00:46:34;;;;;;;;;8.80;6.40;;;;;-0.41;51.91;99055.75;5061763;28;8851;-76
2023/03/28 00:49:11;;;;;;;;;5.60;4.20;;;;;-0.40;51.96;99054.94;5054130;28;8824;-75
2023/03/28 00:51:44;;;;;;;;;8.20;5.60;;;;;-0.21;52.61;99055.22;5056970;28;8844;-79
2023/03/28 00:54:17;;;;;;;;;9.25;9.25;;;;;-0.40;54.08;99072.16;5048871;28;8991;-77
2023/03/28 00:56:51;;;;;;;;;9.50;7.50;;;;;-0.39;53.25;99061.84;5044070;28;8859;-77
2023/03/28 00:59:25;;;;;;;;;6.50;6.50;;;;;-0.43;52.61;99061.75;5049642;28;8995;-77
2023/03/28 01:01:55;;;;;;;;;6.75;5.25;;;;;-0.47;52.96;99053.09;5047122;28;8913;-79
2023/03/28 01:04:35;;;;;;;;;10.80;9.00;;;;;-0.42;52.61;99056.63;5047839;28;8995;-78
2023/03/28 01:07:05;;;;;;;;;7.60;7.20;;;;;-0.49;53.19;99062.53;5048648;28;8859;-77
2023/03/28 01:09:37;;;;;;;;;6.25;5.75;;;;;-0.32;53.25;99063.66;5039780;28;8905;-78
2023/03/28 01:12:07;;;;;;;;;7.50;7.00;;;;;-0.55;53.12;99054.69;5073234;28;8858;-77
2023/03/28 01:14:38;;;;;;;;;11.40;10.20;;;;;-0.39;53.48;99068.69;5085895;28;8957;-77
2023/03/28 01:17:09;;;;;;;;;8.25;6.00;;;;;-0.47;52.59;99075.47;5070203;28;8851;-78
2023/03/28 01:19:57;;;;;;;;;4.00;3.60;;;;;-0.55;52.34;99072.78;5053265;28;9561;-76
2023/03/28 01:22:55;;;;;;;;;6.25;6.25;;;;;-0.70;52.19;99057.91;5067987;28;8931;-77
2023/03/28 01:26:09;;;;;;;;;8.75;8.75;;;;;-0.62;52.88;99091.56;5085274;28;8855;-78
2023/03/28 01:29:07;;;;;;;;;9.25;6.75;;;;;-0.43;52.78;99080.69;5072440;28;8958;-77
2023/03/28 01:32:22;;;;;;;;;13.00;9.50;;;;;-0.72;52.47;99077.66;5065028;28;8932;-77
2023/03/28 01:35:35;;;;;;;;;9.00;7.50;;;;;-0.72;51.95;99098.28;4986101;28;8962;-79
2023/03/28 01:38:14;;;;;;;;;4.75;4.75;;;;;-0.75;52.36;99078.47;4997894;28;8959;-79
2023/03/28 01:40:51;;;;;;;;;11.50;9.75;;;;;-0.62;52.31;99087.28;5024390;28;8856;-78
2023/03/28 01:43:35;;;;;;;;;8.75;7.00;;;;;-0.62;51.99;99089.84;4991544;28;8874;-78
2023/03/28 01:46:11;;;;;;;;;9.25;9.25;;;;;-0.76;52.12;99089.63;5008013;28;9653;-75
2023/03/28 01:48:55;;;;;;;;;8.75;8.75;;;;;-0.77;51.84;99095.63;5003678;28;8891;-76
2023/03/28 01:51:47;;;;;;;;;12.00;9.00;;;;;-0.70;52.19;99101.78;5006550;28;8863;-78
2023/03/28 01:54:30;;;;;;;;;10.25;10.00;;;;;-0.91;51.94;99099.69;4980349;28;8866;-76
2023/03/28 01:57:09;;;;;;;;;8.75;8.50;;;;;-0.84;52.17;99106.69;5006373;28;8874;-77
2023/03/28 01:59:43;;;;;;;;;8.00;5.75;;;;;-0.87;52.03;99101.47;4991296;28;8921;-77
2023/03/28 02:02:31;;;;;;;;;10.00;10.00;;;;;-0.85;52.42;99115.28;4988560;28;9042;-76
2023/03/28 02:05:10;;;;;;;;;9.00;9.00;;;;;-0.76;52.14;99122.31;4974243;28;8859;-77
2023/03/28 02:07:47;;;;;;;;;8.50;8.50;;;;;-1.04;52.18;99119.22;4922903;28;8854;-78
2023/03/28 02:10:24;;;;;;;;;9.20;7.00;;;;;-1.00;51.75;99151.97;4979378;28;8847;-77
2023/03/28 02:13:23;;;;;;;;;6.80;6.80;;;;;-1.06;52.35;99136.38;5020592;28;8878;-79
2023/03/28 02:16:12;;;;;;;;;12.60;8.20;;;;;-1.03;51.89;99126.13;5034138;28;8926;-80
2023/03/28 02:19:01;;;;;;;;;6.40;4.00;;;;;-0.87;52.08;99119.53;5033849;28;8844;-78
2023/03/28 02:21:53;;;;;;;;;1.00;1.00;;;;;-1.03;52.71;99117.50;4994396;28;8874;-79
2023/03/28 02:24:42;;;;;;;;;5.60;5.60;;;;;-0.97;52.77;99136.56;5008784;28;8912;-76
2023/03/28 02:27:47;;;;;;;;;7.40;6.00;;;;;-1.04;52.51;99123.50;4942355;28;8858;-78
2023/03/28 02:30:23;;;;;;;;;7.80;7.80;;;;;-0.86;52.28;99129.03;4938665;28;8940;-78
2023/03/28 02:32:59;;;;;;;;;6.20;5.80;;;;;-0.93;52.37;99130.59;4968179;28;8847;-78
2023/03/28 02:35:40;;;;;;;;;10.00;8.60;;;;;-0.96;52.15;99135.69;4959014;28;8831;-77
2023/03/28 02:38:19;;;;;;;;;10.50;10.50;;;;;-0.84;52.23;99141.94;4911049;28;8864;-78
2023/03/28 02:40:55;;;;;;;;;7.00;7.00;;;;;-0.85;52.11;99146.22;4952771;28;8853;-79
2023/03/28 02:43:43;;;;;;;;;6.60;4.40;;;;;-0.82;52.04;99148.88;4938265;29;8955;-78
2023/03/28 02:46:19;;;;;;;;;2.60;1.20;;;;;-0.92;52.83;99155.59;4920820;29;8853;-79
2023/03/28 02:49:27;;;;;;;;;3.40;3.00;;;;;-0.95;54.13;99152.94;4941019;28;9016;-77
2023/03/28 02:52:13;;;;;;;;;3.80;3.80;;;;;-1.23;54.54;99174.72;4911610;28;8912;-76
2023/03/28 02:54:52;;;;;;;;;6.80;6.40;;;;;-1.30;55.14;99168.59;4976878;28;8866;-77
2023/03/28 02:57:53;;;;;;;;;4.00;3.40;;;;;-1.21;54.81;99172.19;4955216;28;8892;-78
2023/03/28 03:00:23;;;;;;;;;3.40;3.00;;;;;-1.07;55.54;99178.47;4947069;28;8892;-77
2023/03/28 03:02:53;;;;;;;;;5.50;4.00;;;;;-1.15;55.73;99173.16;4925562;28;8851;-78
2023/03/28 03:05:22;;;;;;;;;5.00;4.00;;;;;-1.11;56.09;99168.94;4990642;28;8856;-77
2023/03/28 03:07:51;;;;;;;;;6.80;3.40;;;;;-0.89;56.11;99167.66;5023745;28;9106;-78
2023/03/28 03:10:20;;;;;;;;;3.40;3.40;;;;;-1.08;56.22;99181.06;4983615;28;8984;-77
2023/03/28 03:12:50;;;;;;;;;3.80;3.00;;;;;-1.25;56.26;99176.41;5035572;28;8872;-78
2023/03/28 03:15:19;;;;;;;;;3.60;3.00;;;;;-1.37;57.34;99178.72;5009783;28;9109;-77
2023/03/28 03:17:58;;;;;;;;;2.60;2.60;;;;;-1.37;57.58;99182.19;5010647;28;9589;-76
2023/03/28 03:20:32;;;;;;;;;4.40;4.00;;;;;-1.60;57.73;99197.13;5026669;28;8899;-76
2023/03/28 03:23:03;;;;;;;;;4.00;3.00;;;;;-1.40;56.75;99187.25;4994041;28;8863;-78
2023/03/28 03:25:35;;;;;;;;;4.40;4.00;;;;;-1.49;56.90;99203.38;5030606;28;9038;-77
2023/03/28 03:28:16;;;;;;;;;0.00;0.00;;;;;-1.46;57.74;99192.28;5025728;28;8940;-78
2023/03/28 03:30:46;;;;;;;;;4.00;4.00;;;;;-1.36;57.26;99188.19;5010230;28;8870;-78
2023/03/28 03:33:36;;;;;;;;;4.80;4.80;;;;;-1.54;57.87;99202.44;4993763;28;8864;-78
2023/03/28 03:36:08;;;;;;;;;4.40;3.80;;;;;-1.35;57.54;99202.84;5092295;28;8864;-77
2023/03/28 03:38:38;;;;;;;;;3.80;3.80;;;;;-1.50;57.99;99211.97;5023839;28;8937;-79
2023/03/28 03:41:08;;;;;;;;;2.20;2.20;;;;;-1.35;57.85;99203.72;5112556;27;8855;-78
2023/03/28 03:43:37;;;;;;;;;6.80;6.80;;;;;-1.46;58.28;99201.75;5075884;28;8871;-80
2023/03/28 03:46:07;;;;;;;;;4.80;4.00;;;;;-1.50;58.45;99204.25;5021553;28;8870;-80
2023/03/28 03:48:37;;;;;;;;;3.00;3.00;;;;;-1.50;57.91;99206.81;5042766;28;8916;-79
2023/03/28 03:51:17;;;;;;;;;9.25;6.00;;;;;-1.39;58.01;99207.06;5075601;28;8889;-79
2023/03/28 03:53:49;;;;;;;;;6.00;5.50;;;;;-1.56;59.16;99217.00;5074567;28;9002;-79
2023/03/28 03:56:21;;;;;;;;;3.00;3.00;;;;;-1.43;58.67;99223.28;5035700;28;8876;-79
2023/03/28 03:59:01;;;;;;;;;4.40;4.40;;;;;-1.75;59.72;99222.53;5064067;28;8869;-78
2023/03/28 04:01:33;;;;;;;;;3.25;3.25;;;;;-1.43;59.01;99231.00;5034215;28;8852;-78
2023/03/28 04:04:17;;;;;;;;;4.80;4.40;;;;;-1.60;59.70;99233.19;5065519;28;9035;-78
2023/03/28 04:07:02;;;;;;;;;3.20;3.20;;;;;-1.25;59.54;99224.53;5081516;28;8984;-78
2023/03/28 04:09:32;;;;;;;;;5.60;5.60;;;;;-1.52;59.55;99236.84;5068708;28;8822;-79
2023/03/28 04:12:07;;;;;;;;;3.80;3.40;;;;;-1.58;60.01;99233.25;5056752;28;9050;-79
2023/03/28 04:14:55;;;;;;;;;6.75;6.00;;;;;-1.46;59.98;99240.41;5059743;28;8975;-78
2023/03/28 04:17:48;;;;;;;;;6.60;6.60;;;;;-1.71;61.10;99247.56;4990862;28;9258;-77
2023/03/28 04:20:24;;;;;;;;;7.00;7.00;;;;;-1.64;60.97;99244.28;4988478;28;8863;-76
2023/03/28 04:23:11;;;;;;;;;8.20;7.00;;;;;-1.52;60.55;99259.19;4998344;28;8886;-79
2023/03/28 04:25:42;;;;;;;;;6.00;6.00;;;;;-1.63;61.13;99258.94;4983484;28;8900;-78
2023/03/28 04:28:16;;;;;;;;;5.20;5.20;;;;;-1.87;61.56;99265.22;4978205;28;8848;-77
2023/03/28 04:30:58;;;;;;;;;10.00;7.00;;;;;-1.60;61.58;99265.84;4993445;28;8857;-77
2023/03/28 04:33:53;;;;;;;;;17.75;15.50;;;;;-1.60;60.76;99271.88;4976261;28;8856;-78
2023/03/28 04:36:24;;;;;;;;;7.50;6.00;;;;;-1.82;61.16;99282.53;4929093;28;8853;-80
2023/03/28 04:39:02;;;;;;;;;9.00;6.75;;;;;-1.62;60.77;99281.28;4958578;28;8968;-79
2023/03/28 04:42:04;;;;;;;;;6.60;6.60;;;;;-1.75;61.16;99290.44;4919775;29;8887;-79
2023/03/28 04:44:52;;;;;;;;;6.25;4.50;;;;;-1.69;61.00;99288.00;4876876;29;8902;-80
2023/03/28 04:47:21;;;;;;;;;6.00;5.60;;;;;-1.94;61.61;99296.84;4901080;29;8881;-80
2023/03/28 04:49:51;;;;;;;;;7.20;6.40;;;;;-1.87;62.04;99287.53;4896531;29;8882;-79
2023/03/28 04:52:23;;;;;;;;;9.00;6.75;;;;;-1.86;62.19;99307.31;4912958;29;8932;-78
2023/03/28 04:54:52;;;;;;;;;10.00;8.50;;;;;-1.96;61.99;99300.19;4888004;29;8877;-79
2023/03/28 04:57:23;;;;;;;;;3.25;3.00;;;;;-1.55;62.65;99308.06;4908480;29;8884;-79
2023/03/28 04:59:57;;;;;;;;;9.25;9.25;;;;;-1.72;62.40;99316.25;4875217;29;8965;-81
2023/03/28 05:02:46;;;;;;;;;15.00;15.00;;;;;-1.77;62.50;99317.88;4885302;29;8885;-78
2023/03/28 05:05:20;;;;;;;;;13.00;8.50;;;;;-1.94;62.43;99321.69;4908193;29;8869;-80
2023/03/28 05:07:52;;;;;;;;;7.50;7.50;;;;;-1.83;62.94;99325.41;4908335;29;8888;-78
2023/03/28 05:10:21;;;;;;;;;8.00;8.00;;;;;-1.77;62.56;99323.03;4909454;28;9056;-78
2023/03/28 05:12:52;;;;;;;;;7.50;7.50;;;;;-1.66;62.52;99335.28;4963101;28;8897;-76
2023/03/28 05:15:22;;;;;;;;;9.50;6.00;;;;;-1.65;62.42;99332.75;4954926;28;8913;-75
2023/03/28 05:18:05;;;;;;;;;10.00;9.25;;;;;-1.54;62.91;99343.31;5018420;28;8830;-79
2023/03/28 05:20:36;;;;;;;;;8.25;6.00;;;;;-1.84;63.46;99343.41;5020113;28;8854;-78
2023/03/28 05:23:07;;;;;;;;;7.50;7.00;;;;;-1.78;63.68;99353.91;5035644;28;8834;-77
2023/03/28 05:25:40;;;;;;;;;9.25;9.00;;;;;-1.70;63.14;99353.25;5074883;28;8960;-79
2023/03/28 05:28:10;;;;;;;;;12.25;10.00;;;;;-1.64;63.13;99352.53;5068724;28;8830;-80
2023/03/28 05:30:48;;;;;;;;;12.00;11.25;;;;;-1.53;63.19;99348.50;5077096;28;8841;-76
2023/03/28 05:33:17;;;;;;;;;12.00;10.00;;;;;-1.45;62.78;99358.13;5065029;28;8878;-80
2023/03/28 05:35:47;;;;;;;;;10.50;10.50;;;;;-1.75;64.36;99354.84;5081373;28;8969;-77
2023/03/28 05:38:18;;;;;;;;;8.50;6.50;;;;;-1.96;64.34;99356.84;5071825;28;8844;-76
2023/03/28 05:40:52;;;;;;;;;6.50;6.50;;;;;-1.62;64.21;99362.88;5090448;28;8866;-77
2023/03/28 05:43:21;;;;;;;;;17.00;14.00;;;;;-1.78;64.50;99365.06;5068986;28;8830;-78
2023/03/28 05:45:50;;;;;;;;;12.50;10.25;;;;;-1.77;65.01;99368.50;5105961;28;8847;-81
2023/03/28 05:48:22;;;;;;;;;13.00;11.50;;;;;-1.79;64.92;99370.19;5070214;28;9990;-80
2023/03/28 05:50:51;;;;;;;;;9.75;9.75;;;;;-1.69;64.91;99370.47;5093192;28;8858;-81
2023/03/28 05:53:24;;;;;;;;;16.50;14.75;;;;;-1.69;64.90;99370.47;5087512;28;8840;-80
2023/03/28 05:55:53;;;;;;;;;9.75;9.50;;;;;-1.64;64.28;99383.44;5050237;28;8857;-82
2023/03/28 05:58:22;;;;;;;;;10.00;10.00;;;;;-1.59;64.16;99386.16;5046549;28;8877;-79
2023/03/28 06:00:51;;;;;;;;;18.00;18.00;;;;;-1.40;64.05;99383.19;5069613;28;8969;-78
2023/03/28 06:03:21;;;;;;;;;13.50;12.25;;;;;-1.60;63.70;99386.97;5067934;28;8868;-80
2023/03/28 06:05:51;;;;;;;;;14.25;13.00;;;;;-1.40;63.82;99377.19;5105911;28;8980;-80
2023/03/28 06:08:28;;;;;;;;;13.00;13.00;;;;;-1.64;63.81;99387.75;5096415;28;8901;-79
2023/03/28 06:11:00;;;;;;;;;18.25;16.00;;;;;-1.61;63.41;99393.00;5079988;28;8835;-79
2023/03/28 06:13:34;;;;;;;;;15.00;15.00;;;;;-1.25;63.32;99400.75;5072718;28;8882;-82
2023/03/28 06:16:04;;;;;;;;;11.50;10.50;;;;;-1.21;63.07;99383.66;5050555;28;8850;-78
2023/03/28 06:18:36;;;;;;;;;12.50;12.00;;;;;-1.28;62.36;99411.00;5081445;28;8859;-77
2023/03/28 06:21:05;;;;;;;;;13.75;12.75;;;;;-0.95;61.70;99403.19;5071272;28;8924;-82
2023/03/28 06:23:36;;;;;;;;;9.75;9.00;;;;;-1.25;61.37;99405.91;5067432;28;8870;-79
2023/03/28 06:26:05;;;;;;;;;12.00;9.25;;;;;-1.02;60.58;99415.91;5081862;28;8852;-77
2023/03/28 06:28:41;;;;;;;;;11.75;8.50;;;;;-0.83;60.23;99422.38;5009062;28;8841;-78
2023/03/28 06:31:21;;;;;;;;;12.25;12.00;;;;;-1.18;59.58;99410.41;5069661;28;8844;-78
2023/03/28 06:33:50;;;;;;;;;8.75;8.75;;;;;-1.05;59.29;99434.78;5028002;28;8850;-77
2023/03/28 06:36:21;;;;;;;;;9.75;8.25;;;;;-0.79;58.48;99434.50;5091262;28;8872;-80
2023/03/28 06:38:53;;;;;;;;;12.00;11.75;;;;;-0.81;59.08;99419.00;5053063;28;8843;-80
2023/03/28 06:41:25;;;;;;;;;7.50;7.50;;;;;-0.90;59.03;99439.41;5066671;28;8846;-78
2023/03/28 06:43:54;;;;;;;;;10.50;10.00;;;;;-0.81;58.67;99446.50;5055858;28;8854;-80
2023/03/28 06:46:52;;;;;;;;;13.00;11.25;;;;;-0.81;58.18;99462.00;5031786;28;9638;-81
2023/03/28 06:49:21;;;;;;;;;14.50;13.00;;;;;-0.62;58.04;99434.91;5039750;28;8866;-80
2023/03/28 06:52:22;;;;;;;;;11.75;11.75;;;;;-0.73;58.00;99474.25;5009771;28;8875;-81
2023/03/28 06:54:54;;;;;;;;;12.25;11.75;;;;;-0.64;57.78;99460.66;5008983;28;8875;-79
2023/03/28 06:57:25;;;;;;;;;13.00;11.75;;;;;-0.48;56.98;99456.75;5014842;28;8890;-77
2023/03/28 07:00:06;;;;;;;;;13.50;12.25;;;;;-0.33;55.99;99448.47;5005752;28;8881;-80
2023/03/28 07:02:54;;;;;;;;;13.25;10.00;;;;;-0.27;56.33;99452.91;4989325;28;8874;-79
2023/03/28 07:05:24;;;;;;;;;14.25;12.00;;;;;-0.40;56.89;99459.50;5005814;28;8870;-80
2023/03/28 07:07:53;;;;;;;;;10.75;10.75;;;;;-0.32;56.68;99432.97;5006256;28;8878;-83
2023/03/28 07:10:23;;;;;;;;;13.25;12.75;;;;;-0.48;55.50;99466.19;4986691;28;8877;-82
2023/03/28 07:12:54;;;;;;;;;10.50;10.50;;;;;-0.16;55.19;99459.16;4969719;28;8888;-81
2023/03/28 07:15:23;;;;;;;;;9.80;6.80;;;;;-0.12;55.52;99476.47;4970900;28;8866;-80
2023/03/28 07:17:53;;;;;;;;;12.40;10.20;;;;;0.13;54.50;99456.28;4923100;28;9634;-81
2023/03/28 07:20:23;;;;;;;;;8.25;8.25;;;;;0.14;55.21;99483.88;4912632;29;8859;-82
2023/03/28 07:22:52;;;;;;;;;12.25;10.75;;;;;0.00;54.39;99468.94;4892166;28;8874;-83
2023/03/28 07:25:24;;;;;;;;;10.50;10.50;;;;;0.35;54.34;99468.78;4970691;28;8901;-81
2023/03/28 07:27:53;;;;;;;;;12.20;10.40;;;;;-0.01;53.93;99481.84;4957661;28;8871;-80
2023/03/28 07:30:24;;;;;;;;;8.50;6.00;;;;;0.39;53.24;99480.94;5016173;28;8865;-81
2023/03/28 07:32:53;;;;;;;;;13.00;10.00;;;;;0.02;52.57;99476.75;5032232;28;8888;-80
2023/03/28 07:35:39;;;;;;;;;8.60;8.60;;;;;0.58;52.87;99481.28;4999151;28;8908;-84
2023/03/28 07:38:12;;;;;;;;;13.25;11.50;;;;;0.74;51.65;99462.59;5032082;28;8862;-81
2023/03/28 07:40:54;;;;;;;;;10.80;8.40;;;;;0.75;51.43;99469.53;5049225;28;8854;-74
2023/03/28 07:43:43;;;;;;;;;13.00;10.00;;;;;0.12;51.42;99506.22;5032803;28;8842;-82
2023/03/28 07:46:15;;;;;;;;;13.50;13.00;;;;;0.10;51.57;99482.06;4993838;28;8870;-84
2023/03/28 07:48:45;;;;;;;;;11.25;10.50;;;;;0.25;51.82;99482.38;4993743;28;8870;-81
2023/03/28 07:51:16;;;;;;;;;15.25;11.00;;;;;0.54;50.23;99448.44;4994369;28;8893;-80
2023/03/28 07:53:45;;;;;;;;;11.00;8.40;;;;;0.79;49.31;99478.22;5015211;28;8929;-80
2023/03/28 07:56:16;;;;;;;;;14.20;13.60;;;;;0.44;50.26;99532.72;5004463;28;9086;-79
2023/03/28 07:59:00;;;;;;;;;10.40;8.80;;;;;0.28;50.24;99501.41;5015927;28;8985;-80
2023/03/28 08:01:30;;;;;;;;;10.00;10.00;;;;;0.29;50.44;99517.78;5035358;28;8889;-78
2023/03/28 08:04:03;;;;;;;;;15.80;11.40;;;;;0.66;50.71;99500.41;5050093;28;8893;-77
2023/03/28 08:07:02;;;;;;;;;14.00;8.00;;;;;1.21;50.76;99485.84;5048890;28;8862;-78
2023/03/28 08:09:31;;;;;;;;;12.60;11.80;;;;;1.60;48.77;99491.63;5016903;28;8960;-78
2023/03/28 08:12:11;;;;;;;;;14.40;11.80;;;;;1.10;47.63;99491.69;5028333;28;8840;-79
2023/03/28 08:14:40;;;;;;;;;13.50;11.75;;;;;1.85;48.14;99481.59;5027978;28;8879;-79
2023/03/28 08:17:09;;;;;;;;;12.75;11.50;;;;;2.03;45.76;99487.91;5011622;28;8899;-80
2023/03/28 08:19:38;;;;;;;;;11.00;11.00;;;;;1.56;46.01;99498.47;5028313;28;8857;-79
2023/03/28 08:22:14;;;;;;;;;11.60;10.20;;;;;0.91;47.14;99522.41;5027971;28;8836;-79
2023/03/28 08:25:01;;;;;;;;;13.60;13.60;;;;;1.20;46.35;99512.59;5026994;28;8978;-80
2023/03/28 08:27:32;;;;;;;;;14.60;13.80;;;;;1.12;47.67;99509.00;4991488;28;9620;-78
2023/03/28 08:30:08;;;;;;;;;10.00;10.00;;;;;0.88;47.81;99527.53;5024980;28;8893;-78
2023/03/28 08:32:40;;;;;;;;;12.40;10.20;;;;;1.14;47.97;99515.06;5026754;28;8951;-78
2023/03/28 08:35:11;;;;;;;;;12.40;12.40;;;;;1.49;46.85;99519.94;5024936;28;8881;-77
2023/03/28 08:37:40;;;;;;;;;11.80;11.80;;;;;1.43;45.75;99528.50;5007680;28;8912;-80
2023/03/28 08:40:15;;;;;;;;;12.80;12.80;;;;;1.17;47.78;99520.31;5024259;28;8862;-75
2023/03/28 08:43:06;;;;;;;;;10.60;10.00;;;;;1.14;47.11;99502.13;5016491;28;8866;-78
2023/03/28 08:45:50;;;;;;;;;10.00;10.00;;;;;0.74;48.07;99511.75;5068945;28;9004;-77
2023/03/28 08:48:25;;;;;;;;;10.25;10.25;;;;;1.16;48.44;99508.22;5036648;28;8992;-78
2023/03/28 08:51:00;;;;;;;;;12.00;10.25;;;;;0.78;48.05;99510.94;5034762;28;9579;-77
2023/03/28 08:53:34;;;;;;;;;8.80;8.80;;;;;0.85;46.98;99522.31;5070424;28;8912;-77
2023/03/28 08:56:06;;;;;;;;;10.20;9.60;;;;;1.68;46.79;99515.06;5102660;28;8870;-77
2023/03/28 08:58:46;;;;;;;;;15.80;12.00;;;;;1.93;46.21;99513.66;5085207;28;8870;-78
2023/03/28 09:01:19;;;;;;;;;10.80;10.80;;;;;1.01;45.97;99526.06;5104015;28;8842;-77
2023/03/28 09:03:49;;;;;;;;;10.60;10.60;;;;;1.21;45.88;99511.72;5050652;28;8866;-78
2023/03/28 09:06:28;;;;;;;;;7.80;7.40;;;;;1.41;45.81;99504.28;5085517;28;8878;-78
2023/03/28 09:09:10;;;;;;;;;9.60;9.60;;;;;1.19;45.99;99507.38;5068346;28;8947;-76
2023/03/28 09:11:54;;;;;;;;;9.80;8.60;;;;;1.22;45.72;99500.53;5052096;28;8935;-79
2023/03/28 09:14:50;;;;;;;;;5.40;5.00;;;;;0.74;46.53;99524.69;5105531;28;8870;-78
2023/03/28 09:17:30;;;;;;;;;8.40;7.80;;;;;1.29;45.76;99508.41;5079372;28;8882;-77
2023/03/28 09:20:11;;;;;;;;;13.20;10.60;;;;;1.29;46.10;99555.88;5034367;28;8850;-77
2023/03/28 09:23:13;;;;;;;;;7.80;7.80;;;;;1.34;45.89;99524.91;5077640;28;8854;-77
2023/03/28 09:26:07;;;;;;;;;10.60;9.20;;;;;2.12;43.60;99509.59;5067710;28;8838;-77
2023/03/28 09:28:45;;;;;;;;;13.60;12.00;;;;;2.40;44.25;99524.63;5051277;28;8861;-75
2023/03/28 09:31:19;;;;;;;;;9.20;6.80;;;;;2.47;44.21;99506.56;5071105;28;8888;-78
2023/03/28 09:33:49;;;;;;;;;8.60;7.80;;;;;2.50;42.52;99512.63;5101449;28;8901;-77
2023/03/28 09:36:32;;;;;;;;;14.00;9.00;;;;;2.26;43.84;99528.81;5050243;28;8920;-77
2023/03/28 09:39:27;;;;;;;;;9.00;7.60;;;;;1.75;44.12;99535.91;5068564;28;8901;-78
2023/03/28 09:42:02;;;;;;;;;8.80;7.80;;;;;1.91;43.37;99530.94;5123791;27;9553;-78
2023/03/28 09:44:57;;;;;;;;;11.60;11.60;;;;;2.11;42.67;99524.28;5089001;28;8848;-78
2023/03/28 09:48:00;;;;;;;;;9.40;7.60;;;;;2.41;42.16;99539.38;5070141;28;8900;-78
2023/03/28 09:50:36;;;;;;;;;5.00;5.00;;;;;1.95;41.20;99533.56;5070209;28;8953;-77
2023/03/28 09:53:06;;;;;;;;;5.00;5.00;;;;;2.22;40.87;99521.81;5089743;28;8874;-78
2023/03/28 09:55:35;;;;;;;;;13.00;9.40;;;;;2.20;41.42;99529.59;5054486;28;8970;-78
2023/03/28 09:58:08;;;;;;;;;9.80;9.20;;;;;2.15;41.60;99517.44;5071954;28;8863;-79
2023/03/28 10:01:01;;;;;;;;;8.80;8.80;;;;;2.81;41.53;99523.38;5071181;28;8855;-78
2023/03/28 10:04:01;;;;;;;;;7.20;5.00;;;;;2.55;40.42;99504.94;5040240;28;8833;-78
2023/03/28 10:06:56;;;;;;;;;4.60;2.80;;;;;2.19;41.13;99532.16;5011148;28;8856;-80
2023/03/28 10:09:27;;;;;;;;;2.00;1.00;;;;;2.66;41.25;99534.47;4995791;28;8872;-79
2023/03/28 10:12:03;;;;;;;;;7.80;7.80;;;;;2.97;40.47;99517.44;4995925;28;8856;-77
2023/03/28 10:14:37;;;;;;;;;4.60;4.00;;;;;2.41;40.00;99529.00;5023033;28;8846;-76
2023/03/28 10:17:15;;;;;;;;;7.80;6.00;;;;;2.59;39.86;99543.88;4991166;28;9068;-80
2023/03/28 10:19:51;;;;;;;;;5.00;5.00;;;;;2.38;40.32;99538.47;5007607;28;9035;-80
2023/03/28 10:22:27;;;;;;;;;11.00;8.20;;;;;2.90;39.82;99525.16;5026227;28;8858;-80
2023/03/28 10:24:58;;;;;;;;;5.60;5.60;;;;;3.30;39.96;99533.31;4989150;28;8954;-79
2023/03/28 10:27:31;;;;;;;;;11.80;5.60;;;;;3.37;39.23;99501.34;5008298;28;8866;-79
2023/03/28 10:30:10;;;;;;;;;8.40;7.60;;;;;2.47;39.75;99537.72;4992205;28;8938;-78
2023/03/28 10:32:40;;;;;;;;;9.80;8.60;;;;;2.98;39.40;99539.97;5017521;28;9112;-78
2023/03/28 10:35:30;;;;;;;;;10.00;7.20;;;;;2.88;38.18;99514.78;5031760;28;8872;-82
2023/03/28 10:38:18;;;;;;;;;9.00;9.00;;;;;3.30;38.08;99522.94;5015018;28;8924;-80
2023/03/28 10:41:03;;;;;;;;;10.80;9.00;;;;;3.33;37.75;99538.56;5045163;28;8828;-81
2023/03/28 10:43:48;;;;;;;;;8.00;7.40;;;;;3.74;37.17;99519.84;5069628;28;8852;-81
2023/03/28 10:46:27;;;;;;;;;7.60;6.00;;;;;3.17;35.29;99527.19;5022879;28;9022;-79
2023/03/28 10:49:17;;;;;;;;;5.00;5.00;;;;;3.93;36.67;99536.41;5051916;28;8956;-79
2023/03/28 10:51:57;;;;;;;;;2.80;2.80;;;;;3.09;34.66;99575.56;5068074;28;8969;-80
2023/03/28 10:54:53;;;;;;;;;4.80;3.20;;;;;3.55;35.43;99548.28;5084711;28;8941;-80
2023/03/28 10:57:45;;;;;;;;;4.40;4.40;;;;;2.97;35.38;99547.75;5035154;28;8994;-81
2023/03/28 11:00:22;;;;;;;;;4.40;2.00;;;;;2.86;34.92;99537.25;5031439;28;8917;-80
2023/03/28 11:03:14;;;;;;;;;2.00;2.00;;;;;3.25;33.63;99551.47;5030945;28;8857;-80
2023/03/28 11:05:53;;;;;;;;;4.00;3.20;;;;;3.12;34.61;99553.09;5092456;28;8858;-82
2023/03/28 11:08:55;;;;;;;;;3.20;2.40;;;;;3.24;35.02;99548.88;5053267;28;8839;-80
2023/03/28 11:11:59;;;;;;;;;4.00;4.00;;;;;3.28;34.02;99556.72;5050419;28;8870;-81
2023/03/28 11:14:45;;;;;;;;;7.60;7.20;;;;;3.91;35.42;99517.34;5086295;28;8933;-80
2023/03/28 11:17:27;;;;;;;;;5.40;5.40;;;;;4.29;34.70;99504.50;5036525;28;8997;-79
2023/03/28 11:20:31;;;;;;;;;4.00;4.00;;;;;4.51;31.79;99534.09;5036873;28;8856;-79
2023/03/28 11:23:17;;;;;;;;;5.00;4.20;;;;;4.29;32.81;99522.72;5013701;28;8888;-80
2023/03/28 11:26:12;;;;;;;;;4.00;4.00;;;;;4.24;32.43;99545.25;5018854;28;8856;-78
2023/03/28 11:29:15;;;;;;;;;5.20;5.20;;;;;3.94;33.18;99549.44;5033846;28;8953;-79
2023/03/28 11:31:52;;;;;;;;;6.00;4.20;;;;;3.77;33.03;99486.03;5013292;28;8879;-80
2023/03/28 11:34:28;;;;;;;;;5.20;4.20;;;;;3.49;33.01;99568.19;5012780;28;8925;-79
2023/03/28 11:37:02;;;;;;;;;4.00;4.00;;;;;4.01;33.72;99546.88;4996755;28;8848;-80
2023/03/28 11:39:41;;;;;;;;;5.00;4.40;;;;;3.26;34.26;99550.63;5013658;28;8864;-80
2023/03/28 11:42:21;;;;;;;;;4.00;4.00;;;;;4.10;33.66;99550.38;4985076;28;8898;-80
2023/03/28 11:45:01;;;;;;;;;3.20;3.20;;;;;3.53;34.51;99568.22;5012093;28;8844;-79
2023/03/28 11:47:34;;;;;;;;;5.80;5.80;;;;;4.00;35.20;99529.50;5011954;28;8844;-80
2023/03/28 11:50:18;;;;;;;;;4.20;4.20;;;;;4.53;34.98;99537.56;4994272;28;8866;-80
2023/03/28 11:53:05;;;;;;;;;3.40;3.20;;;;;3.92;34.27;99552.88;4976452;28;8939;-79
2023/03/28 11:55:48;;;;;;;;;4.60;4.60;;;;;3.58;35.38;99563.03;4992717;28;8908;-79
2023/03/28 11:58:43;;;;;;;;;4.80;3.60;;;;;3.59;36.10;99552.66;4950277;28;8869;-78
2023/03/28 12:01:17;;;;;;;;;3.20;3.20;;;;;3.09;36.58;99549.59;5007831;28;8854;-78
2023/03/28 12:03:59;;;;;;;;;5.00;4.80;;;;;3.49;36.63;99556.06;5045273;28;8845;-78
2023/03/28 12:06:35;;;;;;;;;3.00;3.00;;;;;2.85;39.49;99571.00;5014322;28;8927;-79
2023/03/28 12:09:15;;;;;;;;;4.00;4.00;;;;;3.22;40.85;99576.56;5032168;28;8841;-78
2023/03/28 12:11:55;;;;;;;;;4.00;4.00;;;;;3.71;41.21;99566.59;4981636;28;9674;-82
2023/03/28 12:14:36;;;;;;;;;1.40;0.80;;;;;3.89;41.38;99569.34;5016383;28;8842;-79
2023/03/28 12:17:24;;;;;;;;;1.20;1.20;;;;;2.29;40.40;99567.72;5015439;28;8873;-80
2023/03/28 12:19:55;;;;;;;;;4.00;1.80;;;;;2.36;41.48;99585.13;5012745;28;8935;-77
2023/03/28 12:22:33;;;;;;;;;5.00;3.60;;;;;2.21;40.79;99567.63;5045189;28;8903;-79
2023/03/28 12:25:07;;;;;;;;;1.40;1.40;;;;;2.69;40.89;99562.16;5011261;28;8877;-79
2023/03/28 12:27:55;;;;;;;;;2.80;2.00;;;;;3.28;39.89;99546.31;5011803;28;8822;-79
2023/03/28 12:30:39;;;;;;;;;4.60;4.60;;;;;3.51;37.71;99549.13;5012028;28;8846;-82